Time;durP1;ratioP1;P1;durP2;ratioP2;P2;SDS_P1;SDS_P2;PMS_P1;PMS_P2;Temp;Humidity;BMP_temperature;BMP_pressure;BME280_temperature;BME280_humidity;BME280_pressure;Samples;Min_cycle;Max_cycle;Signal;HPM_P1;HPM_P2
2021/10/18 00:02:18;;;;;;;25.53;9.27;;;;;;;3.93;77.62;99784.84;1666633;85;20911;-71
2021/10/18 00:04:52;;;;;;;19.15;8.15;;;;;;;3.90;77.83;99777.22;1643736;86;21579;-71
2021/10/18 00:07:22;;;;;;;24.98;9.10;;;;;;;3.91;77.69;99781.57;1667279;85;20971;-72
2021/10/18 00:09:56;;;;;;;16.02;8.50;;;;;;;3.92;77.69;99777.23;1667160;85;22389;-72
2021/10/18 00:12:28;;;;;;;18.32;8.20;;;;;;;3.96;77.58;99779.69;1667054;84;20975;-72
2021/10/18 00:15:03;;;;;;;18.40;8.38;;;;;;;4.02;77.60;99775.09;1643279;86;20998;-73
2021/10/18 00:17:35;;;;;;;21.12;8.58;;;;;;;4.07;76.89;99768.83;1644228;86;21014;-72
2021/10/18 00:20:07;;;;;;;18.80;7.78;;;;;;;4.14;76.65;99763.41;1644023;86;21578;-73
2021/10/18 00:22:52;;;;;;;22.13;8.25;;;;;;;4.21;75.88;99764.52;1667694;85;21149;-73
2021/10/18 00:25:14;;;;;;;17.62;8.18;;;;;;;4.26;75.96;99761.81;1665211;86;21542;-72
2021/10/18 00:27:44;;;;;;;19.35;7.72;;;;;;;4.37;75.12;99760.75;1666958;86;21003;-71
2021/10/18 00:30:11;;;;;;;14.43;6.97;;;;;;;4.37;75.12;99760.75;1663494;86;20955;-72
2021/10/18 00:32:39;;;;;;;19.77;8.23;;;;;;;4.40;74.79;99761.56;1667280;84;21569;-71
2021/10/18 00:35:08;;;;;;;17.77;8.45;;;;;;;4.45;74.74;99762.93;1667658;85;21470;-71
2021/10/18 00:37:42;;;;;;;18.20;7.35;;;;;;;4.49;74.08;99758.59;1666486;86;20999;-71
2021/10/18 00:40:10;;;;;;;18.87;8.15;;;;;;;4.54;73.75;99760.50;1661428;85;21034;-71
2021/10/18 00:42:40;;;;;;;19.98;8.63;;;;;;;4.57;73.40;99759.41;1654026;86;21044;-70
2021/10/18 00:45:08;;;;;;;15.78;7.37;;;;;;;4.60;72.87;99756.16;1654290;86;21031;-70
2021/10/18 00:47:36;;;;;;;20.62;8.45;;;;;;;4.65;72.69;99762.11;1632306;86;21515;-70
2021/10/18 00:50:10;;;;;;;22.00;7.95;;;;;;;4.69;72.47;99755.58;1654040;86;20996;-71
2021/10/18 00:52:43;;;;;;;17.10;7.12;;;;;;;4.70;72.37;99750.41;1654040;86;20999;-71
2021/10/18 00:55:22;;;;;;;17.48;7.72;;;;;;;4.74;72.13;99756.94;1646033;86;21008;-71
2021/10/18 00:57:50;;;;;;;18.73;8.00;;;;;;;4.75;72.42;99753.14;1654180;86;21106;-71
2021/10/18 01:00:20;;;;;;;21.10;9.53;;;;;;;4.77;72.93;99749.05;1655103;86;21825;-71
2021/10/18 01:02:52;;;;;;;23.70;9.93;;;;;;;4.77;72.46;99750.95;1653990;86;21059;-73
2021/10/18 01:05:29;;;;;;;24.12;9.78;;;;;;;4.75;72.08;99745.80;1632998;86;20937;-73
2021/10/18 01:08:04;;;;;;;19.98;8.65;;;;;;;4.81;71.96;99753.41;1654087;86;21460;-72
2021/10/18 01:10:32;;;;;;;18.60;8.95;;;;;;;4.82;71.84;99752.31;1648824;86;20944;-72
2021/10/18 01:13:03;;;;;;;19.23;8.03;;;;;;;4.83;71.74;99745.79;1653880;86;20960;-72
2021/10/18 01:15:34;;;;;;;19.75;8.08;;;;;;;4.84;71.53;99740.63;1653859;86;21557;-72
2021/10/18 01:18:06;;;;;;;15.38;7.47;;;;;;;4.85;71.67;99744.42;1632868;86;20889;-72
2021/10/18 01:20:43;;;;;;;15.55;7.12;;;;;;;4.84;71.39;99736.00;1654092;86;20923;-73
2021/10/18 01:23:14;;;;;;;18.37;8.25;;;;;;;4.87;71.44;99736.00;1633292;86;21522;-72
2021/10/18 01:25:46;;;;;;;14.90;6.90;;;;;;;4.89;71.73;99739.26;1654267;86;20936;-71
2021/10/18 01:28:18;;;;;;;18.07;7.92;;;;;;;4.86;71.61;99737.90;1653082;86;21511;-70
2021/10/18 01:30:49;;;;;;;19.20;8.03;;;;;;;4.85;72.12;99745.79;1628919;86;21062;-71
2021/10/18 01:33:24;;;;;;;20.25;7.78;;;;;;;4.82;72.53;99738.72;1654158;86;21010;-72
2021/10/18 01:35:55;;;;;;;17.05;7.62;;;;;;;4.83;71.86;99747.15;1653687;86;21479;-72
2021/10/18 01:38:26;;;;;;;17.52;8.18;;;;;;;4.83;71.88;99745.25;1654091;86;21152;-71
2021/10/18 01:40:53;;;;;;;21.73;7.33;;;;;;;4.83;72.51;99743.06;1653985;86;21076;-72
2021/10/18 01:43:28;;;;;;;20.10;7.65;;;;;;;4.83;72.48;99747.15;1699060;84;20906;-72
2021/10/18 01:46:03;;;;;;;15.50;6.78;;;;;;;4.83;72.23;99750.69;1678328;84;21011;-72
2021/10/18 01:48:34;;;;;;;22.02;8.05;;;;;;;4.85;71.82;99747.69;1700672;84;20935;-72
2021/10/18 01:51:04;;;;;;;11.53;6.40;;;;;;;4.87;71.67;99751.77;1701033;84;21490;-73
2021/10/18 01:53:41;;;;;;;19.93;7.80;;;;;;;4.88;71.93;99747.15;1700987;84;20955;-73
2021/10/18 01:56:15;;;;;;;20.88;8.40;;;;;;;4.89;71.58;99750.95;1701013;84;21782;-73
2021/10/18 01:58:44;;;;;;;21.90;8.95;;;;;;;4.90;71.27;99749.86;1699376;84;28092;-72
2021/10/18 02:01:11;;;;;;;18.92;8.00;;;;;;;4.91;71.14;99743.88;1700959;84;20998;-72
2021/10/18 02:03:44;;;;;;;20.95;8.45;;;;;;;4.91;71.09;99739.25;1700930;84;21217;-72
2021/10/18 02:06:16;;;;;;;25.00;8.40;;;;;;;4.92;71.10;99743.61;1678950;84;21505;-70
2021/10/18 02:08:49;;;;;;;18.07;7.75;;;;;;;4.92;71.10;99743.61;1701018;84;20911;-70
2021/10/18 02:11:15;;;;;;;16.93;7.78;;;;;;;4.93;71.04;99747.95;1675127;84;20958;-71
2021/10/18 02:13:42;;;;;;;16.75;7.30;;;;;;;4.93;71.09;99751.22;1700968;84;20958;-70
2021/10/18 02:16:12;;;;;;;15.03;6.70;;;;;;;4.94;71.26;99746.05;1700955;84;21513;-70
2021/10/18 02:18:41;;;;;;;15.32;7.55;;;;;;;4.94;71.26;99746.05;1701063;84;21014;-70
2021/10/18 02:21:13;;;;;;;14.20;7.37;;;;;;;4.93;71.23;99745.78;1701468;84;21006;-69
2021/10/18 02:23:47;;;;;;;17.20;7.00;;;;;;;4.92;71.36;99740.89;1679239;84;21443;-70
2021/10/18 02:26:18;;;;;;;14.60;6.83;;;;;;;4.92;71.45;99746.33;1701533;84;21450;-72
2021/10/18 02:28:53;;;;;;;18.45;7.03;;;;;;;4.92;71.26;99742.80;1700838;84;21616;-73
2021/10/18 02:31:23;;;;;;;15.32;7.35;;;;;;;4.93;71.29;99743.88;1677772;84;21016;-73
2021/10/18 02:33:50;;;;;;;20.45;7.72;;;;;;;4.92;71.11;99735.45;1700976;84;20907;-73
2021/10/18 02:36:19;;;;;;;18.48;7.33;;;;;;;4.95;70.98;99736.80;1701238;84;20914;-73
2021/10/18 02:38:53;;;;;;;18.90;7.73;;;;;;;4.93;70.94;99730.82;1701265;83;21030;-73
2021/10/18 02:41:25;;;;;;;21.33;9.23;;;;;;;4.95;70.98;99735.45;1672344;84;25492;-72
2021/10/18 02:43:55;;;;;;;15.20;7.28;;;;;;;4.95;71.06;99736.26;1691443;84;20951;-72
2021/10/18 02:46:30;;;;;;;17.23;6.78;;;;;;;4.96;70.93;99732.99;1691491;84;20939;-72
2021/10/18 02:49:04;;;;;;;20.30;7.40;;;;;;;4.96;70.93;99732.99;1691486;84;20982;-73
2021/10/18 02:51:38;;;;;;;18.15;6.80;;;;;;;4.96;70.87;99733.81;1691645;84;21011;-73
2021/10/18 02:54:11;;;;;;;16.35;6.95;;;;;;;4.96;70.87;99733.81;1691535;84;21160;-73
2021/10/18 02:56:39;;;;;;;10.85;6.53;;;;;;;4.97;71.00;99729.19;1691775;84;20895;-73
2021/10/18 02:59:11;;;;;;;18.95;6.75;;;;;;;4.97;71.39;99734.63;1669386;84;20970;-74
2021/10/18 03:01:39;;;;;;;17.05;6.90;;;;;;;4.95;71.50;99734.08;1650967;85;21019;-72
2021/10/18 03:04:14;;;;;;;16.02;7.22;;;;;;;4.94;71.65;99733.81;1674030;85;20904;-72
2021/10/18 03:06:53;;;;;;;17.55;6.83;;;;;;;4.91;71.94;99727.56;1686254;85;21148;-72
2021/10/18 03:09:25;;;;;;;12.47;6.20;;;;;;;4.89;71.70;99730.55;1685996;83;21019;-72
2021/10/18 03:12:00;;;;;;;19.65;7.33;;;;;;;4.89;71.70;99730.55;1686014;85;20940;-74
2021/10/18 03:14:28;;;;;;;;;;;;;;;4.91;71.78;99730.28;1688291;85;20978;-72
2021/10/18 03:17:11;;;;;;;16.75;6.42;;;;;;;4.93;71.62;99725.38;1685972;85;20119;-72
2021/10/18 03:19:40;;;;;;;16.95;7.00;;;;;;;4.92;72.00;99725.92;1686149;85;21439;-72
2021/10/18 03:22:17;;;;;;;12.33;6.50;;;;;;;4.92;71.82;99721.84;1685878;85;20955;-72
2021/10/18 03:24:46;;;;;;;19.77;6.90;;;;;;;4.93;71.84;99715.86;1662557;85;20967;-76
2021/10/18 03:27:22;;;;;;;13.98;7.55;;;;;;;4.94;71.58;99716.12;1662580;85;20999;-70
2021/10/18 03:29:52;;;;;;;18.02;7.10;;;;;;;4.95;71.29;99715.86;1685780;83;20979;-69
2021/10/18 03:32:32;;;;;;;17.98;8.13;;;;;;;4.97;71.29;99712.86;1685957;85;21810;-72
2021/10/18 03:35:03;;;;;;;20.70;7.03;;;;;;;4.98;71.41;99713.13;1685918;85;21443;-72
2021/10/18 03:37:36;;;;;;;11.57;6.40;;;;;;;4.98;71.47;99713.13;1686117;85;20947;-71
2021/10/18 03:40:05;;;;;;;27.87;7.35;;;;;;;4.97;71.70;99710.95;1686333;85;20928;-73
2021/10/18 03:42:37;;;;;;;20.20;7.65;;;;;;;4.94;71.52;99712.86;1705589;84;20902;-71
2021/10/18 03:45:08;;;;;;;20.52;7.40;;;;;;;4.93;71.50;99717.22;1705644;84;21851;-72
2021/10/18 03:47:39;;;;;;;18.70;7.50;;;;;;;4.92;71.41;99709.60;1677753;84;20899;-71
2021/10/18 03:50:15;;;;;;;23.18;8.40;;;;;;;4.92;71.48;99712.33;1677644;84;20903;-71
2021/10/18 03:52:44;;;;;;;18.42;7.37;;;;;;;4.92;71.39;99712.33;1705544;84;20990;-73
2021/10/18 03:55:13;;;;;;;14.98;6.85;;;;;;;4.92;71.52;99704.16;1705408;84;21042;-71
2021/10/18 03:57:46;;;;;;;22.10;8.38;;;;;;;4.93;71.55;99707.70;1705021;84;21181;-72
2021/10/18 04:00:18;;;;;;;28.05;8.88;;;;;;;4.93;71.55;99707.70;1671283;86;20944;-70
2021/10/18 04:02:49;;;;;;;18.00;7.92;;;;;;;4.91;71.47;99701.17;1702900;83;20937;-70
2021/10/18 04:05:20;;;;;;;19.80;8.40;;;;;;;4.91;71.47;99701.17;1705588;82;21072;-70
2021/10/18 04:07:48;;;;;;;18.45;8.95;;;;;;;4.93;71.71;99703.07;1704428;84;20929;-71
2021/10/18 04:10:19;;;;;;;16.52;9.58;;;;;;;4.93;71.61;99704.44;1671336;86;21238;-82
2021/10/18 04:12:53;;;;;;;18.77;8.10;;;;;;;4.92;71.68;99700.08;1690082;83;21481;-83
2021/10/18 04:15:24;;;;;;;22.80;9.20;;;;;;;4.97;71.61;99707.42;1705460;83;20982;-71
2021/10/18 04:17:51;;;;;;;19.40;7.92;;;;;;;4.98;71.43;99707.69;1671377;86;21036;-72
2021/10/18 04:20:27;;;;;;;16.35;7.47;;;;;;;4.98;71.97;99705.78;1698196;82;20997;-78
2021/10/18 04:22:58;;;;;;;15.45;7.90;;;;;;;5.01;71.81;99704.97;1705204;84;21542;-74
2021/10/18 04:25:28;;;;;;;;;;;;;;;5.01;71.69;99709.05;1673725;86;20929;-70
2021/10/18 04:28:03;;;;;;;19.77;8.78;;;;;;;5.00;72.10;99709.59;1654339;85;20106;-79
2021/10/18 04:30:32;;;;;;;22.23;8.30;;;;;;;5.01;71.87;99705.78;1705850;84;21439;-74
2021/10/18 04:32:59;;;;;;;16.30;7.67;;;;;;;;;;1671564;85;21095;-72
2021/10/18 04:35:34;;;;;;;16.70;7.85;;;;;;;5.01;71.92;99707.14;1677189;84;20932;-73
2021/10/18 04:38:09;;;;;;;17.02;8.13;;;;;;;5.01;71.85;99703.06;1644501;86;20975;-72
2021/10/18 04:40:39;;;;;;;30.52;9.35;;;;;;;5.02;71.80;99706.59;1690527;83;21104;-72
2021/10/18 04:43:08;;;;;;;14.75;7.97;;;;;;;5.02;71.77;99710.13;1705670;84;20850;-72
2021/10/18 04:45:39;;;;;;;19.87;9.40;;;;;;;5.02;71.74;99716.94;1705341;84;21520;-72
2021/10/18 04:48:11;;;;;;;20.60;9.18;;;;;;;5.03;71.85;99721.28;1700582;83;21884;-72
2021/10/18 04:50:40;;;;;;;16.15;8.68;;;;;;;5.03;71.85;99721.28;1713845;82;24100;-71
2021/10/18 04:53:13;;;;;;;15.15;8.05;;;;;;;5.03;71.87;99713.13;1688429;82;21011;-70
2021/10/18 04:55:40;;;;;;;17.95;8.60;;;;;;;5.03;71.87;99713.13;1718723;82;21538;-74
2021/10/18 04:58:09;;;;;;;20.77;7.87;;;;;;;5.04;71.92;99716.66;1720480;82;21432;-69
2021/10/18 05:00:42;;;;;;;21.05;9.85;;;;;;;5.06;71.93;99729.45;1715627;82;21166;-70
2021/10/18 05:03:10;;;;;;;21.35;9.05;;;;;;;5.08;72.00;99728.63;1671759;82;21170;-67
2021/10/18 05:05:47;;;;;;;20.12;9.15;;;;;;;5.10;72.10;99727.80;1737660;82;21314;-66
2021/10/18 05:08:14;;;;;;;20.45;8.53;;;;;;;5.12;72.02;99725.08;1737877;82;21455;-66
2021/10/18 05:10:47;;;;;;;15.70;7.72;;;;;;;5.15;72.20;99736.77;1710804;81;20988;-65
2021/10/18 05:13:16;;;;;;;18.15;7.53;;;;;;;5.19;72.14;99745.20;1737738;82;21459;-68
2021/10/18 05:15:49;;;;;;;16.52;7.85;;;;;;;5.21;71.85;99738.36;1710749;82;20885;-72
2021/10/18 05:18:16;;;;;;;;;;;;;;;5.24;71.84;99750.06;1711931;82;21110;-78
2021/10/18 05:20:52;;;;;;;17.42;6.78;;;;;;;5.27;72.06;99745.43;1734209;82;20428;-68
2021/10/18 05:23:27;;;;;;;13.55;6.75;;;;;;;5.30;72.02;99753.05;1712094;82;20948;-71
2021/10/18 05:25:56;;;;;;;17.27;7.10;;;;;;;5.34;71.93;99747.87;1738136;82;21184;-66
2021/10/18 05:28:29;;;;;;;18.27;6.72;;;;;;;5.39;72.10;99745.67;1710721;82;20944;-68
2021/10/18 05:30:56;;;;;;;15.75;6.40;;;;;;;5.44;71.75;99745.66;1737938;82;20972;-68
2021/10/18 05:33:31;;;;;;;16.27;7.03;;;;;;;5.47;71.77;99755.45;1710606;82;20912;-72
2021/10/18 05:36:03;;;;;;;14.33;6.67;;;;;;;5.50;71.45;99754.09;1731603;82;21551;-68
2021/10/18 05:38:34;;;;;;;22.02;7.33;;;;;;;5.52;71.58;99759.52;1698624;84;20992;-69
2021/10/18 05:41:07;;;;;;;28.98;7.25;;;;;;;5.56;71.59;99757.06;1701548;82;21468;-72
2021/10/18 05:43:43;;;;;;;;;;;;;;;5.60;71.58;99752.14;1710931;83;20877;-70
2021/10/18 05:46:13;;;;;;;18.00;7.97;;;;;;;5.66;71.47;99763.02;1707660;83;20164;-87
2021/10/18 05:48:43;;;;;;;18.92;7.37;;;;;;;5.72;71.27;99770.90;1708494;83;20992;-70
2021/10/18 05:51:16;;;;;;;16.50;7.67;;;;;;;5.80;71.40;99773.02;1708323;84;21530;-78
2021/10/18 05:53:43;;;;;;;18.95;8.23;;;;;;;5.86;71.37;99761.00;1715001;82;21013;-78
2021/10/18 05:56:12;;;;;;;22.45;8.53;;;;;;;6.00;70.75;99765.33;1709983;82;21495;-74
2021/10/18 05:58:44;;;;;;;22.15;7.53;;;;;;;6.00;70.75;99765.33;1708206;84;20940;-74
2021/10/18 06:01:17;;;;;;;17.45;7.55;;;;;;;6.05;71.11;99775.39;1692030;84;20952;-73
2021/10/18 06:03:51;;;;;;;20.23;7.85;;;;;;;6.11;70.80;99774.27;1708287;82;21740;-75
2021/10/18 06:06:22;;;;;;;15.63;7.22;;;;;;;6.14;70.43;99773.71;1692157;84;20885;-72
2021/10/18 06:08:58;;;;;;;21.42;8.20;;;;;;;6.17;70.54;99776.69;1708502;83;21531;-74
2021/10/18 06:11:28;;;;;;;18.62;7.20;;;;;;;6.22;70.22;99786.75;1708327;82;20965;-74
2021/10/18 06:14:00;;;;;;;19.57;8.30;;;;;;;6.24;70.10;99786.74;1692185;84;21011;-69
2021/10/18 06:16:38;;;;;;;14.58;6.83;;;;;;;6.27;70.09;99788.09;1708222;83;21031;-69
2021/10/18 06:19:13;;;;;;;17.98;6.97;;;;;;;6.31;69.90;99791.89;1708233;84;20963;-70
2021/10/18 06:21:47;;;;;;;14.63;7.00;;;;;;;6.33;69.73;99788.33;1708335;83;20980;-68
2021/10/18 06:24:16;;;;;;;16.55;6.65;;;;;;;6.34;69.80;99798.14;1707514;83;20972;-69
2021/10/18 06:26:52;;;;;;;15.95;6.17;;;;;;;6.35;69.39;99797.05;1708154;84;20885;-70
2021/10/18 06:29:22;;;;;;;12.33;6.75;;;;;;;6.38;69.17;99797.00;1703150;83;21548;-69
2021/10/18 06:31:52;;;;;;;16.37;6.83;;;;;;;6.39;69.14;99798.08;1688401;84;20908;-69
2021/10/18 06:34:23;;;;;;;11.90;6.20;;;;;;;6.40;69.12;99798.34;1708287;83;20924;-69
2021/10/18 06:36:54;;;;;;;;;;;;;;;6.42;69.11;99798.88;1706091;83;20976;-69
2021/10/18 06:39:25;;;;;;;22.58;7.53;;;;;;;6.46;69.20;99795.86;1708140;83;20089;-69
2021/10/18 06:41:54;;;;;;;12.55;6.15;;;;;;;6.48;69.37;99802.39;1714664;83;21976;-69
2021/10/18 06:44:23;;;;;;;12.18;6.65;;;;;;;6.52;69.48;99802.09;1726324;83;20897;-72
2021/10/18 06:46:52;;;;;;;16.60;7.45;;;;;;;6.57;69.47;99804.24;1725516;83;20942;-69
2021/10/18 06:49:22;;;;;;;17.57;7.22;;;;;;;6.62;69.47;99798.75;1726610;83;20900;-69
2021/10/18 06:51:58;;;;;;;15.25;6.67;;;;;;;6.67;68.97;99799.81;1726249;83;21519;-68
2021/10/18 06:54:37;;;;;;;12.13;6.58;;;;;;;6.71;68.99;99796.78;1703246;83;21498;-69
2021/10/18 06:57:03;;;;;;;15.50;6.70;;;;;;;6.75;68.64;99804.67;1699569;82;21019;-69
2021/10/18 06:59:32;;;;;;;22.00;7.33;;;;;;;6.76;68.38;99803.02;1703588;83;20999;-70
2021/10/18 07:01:59;;;;;;;13.95;6.15;;;;;;;6.78;68.37;99808.20;1723891;83;20941;-69
2021/10/18 07:04:38;;;;;;;21.10;8.00;;;;;;;6.80;68.56;99800.54;1725172;83;21015;-76
2021/10/18 07:07:03;;;;;;;19.32;7.10;;;;;;;6.87;68.92;99809.22;1726546;83;21813;-74
2021/10/18 07:09:39;;;;;;;12.13;6.80;;;;;;;6.91;68.43;99806.19;1725822;83;20980;-69
2021/10/18 07:12:23;;;;;;;13.60;7.65;;;;;;;6.94;68.26;99800.94;1725406;82;20941;-78
2021/10/18 07:14:46;;;;;;;19.20;8.18;;;;;;;7.00;67.84;99798.17;1722689;83;20940;-69
2021/10/18 07:17:21;;;;;;;15.55;7.20;;;;;;;7.07;67.74;99804.94;1703592;83;21424;-73
2021/10/18 07:19:57;;;;;;;14.83;7.42;;;;;;;7.14;67.60;99804.05;1703697;83;20916;-72
2021/10/18 07:22:49;;;;;;;12.68;7.35;;;;;;;7.23;67.05;99791.96;1726133;83;20896;-71
2021/10/18 07:25:02;;;;;;;14.63;7.10;;;;;;;7.32;67.07;99798.98;1718235;82;21023;-72
2021/10/18 07:27:36;;;;;;;12.55;6.40;;;;;;;7.37;66.96;99797.56;1725506;83;21005;-73
2021/10/18 07:30:10;;;;;;;14.30;7.30;;;;;;;7.43;66.18;99793.13;1726640;83;20932;-72
2021/10/18 07:32:46;;;;;;;20.50;9.03;;;;;;;7.50;66.38;99794.16;1727881;81;21119;-70
2021/10/18 07:35:13;;;;;;;25.43;9.43;;;;;;;7.52;65.74;99794.65;1727112;81;20956;-73
2021/10/18 07:37:47;;;;;;;19.87;8.58;;;;;;;7.53;64.91;99786.16;1726210;83;20948;-72
2021/10/18 07:40:16;;;;;;;21.68;9.20;;;;;;;7.55;65.14;99789.97;1703707;83;21491;-73
2021/10/18 07:42:43;;;;;;;16.37;8.43;;;;;;;7.57;65.10;99787.77;1729281;81;20996;-72
2021/10/18 07:45:09;;;;;;;21.75;9.40;;;;;;;7.60;65.32;99791.28;1729154;82;21514;-73
2021/10/18 07:47:38;;;;;;;19.02;9.43;;;;;;;7.67;65.08;99793.67;1732567;81;20944;-71
2021/10/18 07:50:06;;;;;;;22.35;10.90;;;;;;;7.68;64.54;99790.65;1734789;82;21000;-70
2021/10/18 07:52:34;;;;;;;24.67;11.18;;;;;;;7.71;65.09;99794.17;1733428;82;20991;-71
2021/10/18 07:55:03;;;;;;;22.42;10.80;;;;;;;7.73;64.53;99797.98;1734175;82;21066;-72
2021/10/18 07:57:30;;;;;;;23.25;10.90;;;;;;;7.73;64.88;99789.23;1734096;82;21234;-73
2021/10/18 07:59:58;;;;;;;25.60;10.18;;;;;;;7.76;64.87;99794.11;1736027;82;21058;-74
2021/10/18 08:02:25;;;;;;;24.47;10.23;;;;;;;7.77;64.99;99795.74;1736401;82;21008;-73
2021/10/18 08:04:54;;;;;;;22.27;10.38;;;;;;;7.79;64.61;99791.35;1729192;82;21601;-73
2021/10/18 08:07:26;;;;;;;23.35;9.70;;;;;;;7.79;64.76;99796.27;1700316;83;21103;-74
2021/10/18 08:09:48;;;;;;;25.20;10.08;;;;;;;7.79;64.30;99792.16;1680064;84;21508;-75
2021/10/18 08:12:15;;;;;;;21.90;11.10;;;;;;;7.79;64.20;99790.80;1667851;84;20953;-75
2021/10/18 08:14:42;;;;;;;27.22;11.43;;;;;;;7.81;64.58;99783.67;1663407;86;20961;-75
2021/10/18 08:17:09;;;;;;;26.17;10.70;;;;;;;7.86;64.50;99783.06;1663548;86;20953;-75
2021/10/18 08:19:35;;;;;;;24.90;9.93;;;;;;;7.91;64.33;99784.37;1663628;86;21063;-74
2021/10/18 08:22:01;;;;;;;21.10;10.25;;;;;;;8.00;64.26;99783.72;1664136;84;21652;-74
2021/10/18 08:24:28;;;;;;;24.00;9.83;;;;;;;8.11;63.39;99781.09;1668136;84;21569;-74
2021/10/18 08:26:55;;;;;;;18.85;9.08;;;;;;;8.21;63.18;99775.48;1667610;85;20944;-74
2021/10/18 08:29:21;;;;;;;23.98;10.30;;;;;;;8.41;63.05;99783.99;1675062;84;22167;-73
2021/10/18 08:31:48;;;;;;;18.62;9.70;;;;;;;8.72;62.85;99777.48;1676203;84;20973;-74
2021/10/18 08:34:14;;;;;;;20.35;9.75;;;;;;;9.11;62.13;99786.15;1678661;84;21511;-74
2021/10/18 08:36:42;;;;;;;17.52;8.50;;;;;;;9.41;60.41;99782.03;1680944;84;20909;-73
2021/10/18 08:42:02;;;;;;;15.60;8.63;;;;;;;9.56;58.22;99779.56;1675682;84;21037;-74
2021/10/18 08:44:24;;;;;;;24.35;9.38;;;;;;;9.49;58.93;99781.89;1663201;85;21565;-74
2021/10/18 08:46:52;;;;;;;24.85;9.85;;;;;;;9.44;58.83;99777.31;1684937;84;21127;-73
2021/10/18 08:49:20;;;;;;;18.95;9.40;;;;;;;9.37;58.50;99788.41;1686248;84;21064;-73
2021/10/18 08:51:47;;;;;;;19.32;9.78;;;;;;;9.30;58.21;99783.88;1688917;84;21049;-73
2021/10/18 08:54:15;;;;;;;20.55;10.30;;;;;;;9.24;59.08;99779.86;1671773;85;20994;-74
2021/10/18 08:56:42;;;;;;;24.18;9.88;;;;;;;9.27;59.02;99783.38;1672396;85;21018;-74
2021/10/18 08:59:08;;;;;;;21.45;10.08;;;;;;;9.30;59.42;99781.95;1674394;85;21489;-74
2021/10/18 09:01:48;;;;;;;22.80;10.48;;;;;;;9.37;59.29;99792.52;1673913;85;20911;-74
2021/10/18 09:04:27;;;;;;;22.62;10.20;;;;;;;9.42;59.59;99787.77;1674279;85;20903;-74
2021/10/18 09:06:58;;;;;;;22.25;9.78;;;;;;;9.47;58.87;99784.12;1672919;85;20975;-74
2021/10/18 09:09:26;;;;;;;21.10;9.13;;;;;;;9.49;58.72;99785.45;1674250;85;20915;-74
2021/10/18 09:11:57;;;;;;;21.20;10.53;;;;;;;9.53;58.82;99785.66;1673968;84;21234;-74
2021/10/18 09:14:23;;;;;;;22.17;11.18;;;;;;;9.55;58.28;99784.23;1648933;85;21601;-74
2021/10/18 09:16:50;;;;;;;23.67;9.73;;;;;;;9.58;58.50;99784.19;1676059;84;20919;-74
2021/10/18 09:19:21;;;;;;;18.20;9.68;;;;;;;9.63;58.25;99784.09;1687704;84;21095;-74
2021/10/18 09:21:54;;;;;;;18.77;9.30;;;;;;;9.67;57.91;99784.30;1683226;84;21075;-74
2021/10/18 09:24:36;;;;;;;20.43;10.48;;;;;;;9.64;58.13;99788.45;1682314;84;21739;-74
2021/10/18 09:27:05;;;;;;;19.45;9.85;;;;;;;9.62;58.00;99783.02;1668726;86;20913;-74
2021/10/18 09:29:46;;;;;;;46.48;13.93;;;;;;;9.57;57.81;99781.19;1643363;86;32813;-74
2021/10/18 09:32:29;;;;;;;29.60;10.95;;;;;;;9.51;57.58;99784.59;1668617;86;20929;-74
2021/10/18 09:35:18;;;;;;;20.45;10.35;;;;;;;9.44;58.12;99776.50;1669350;86;20917;-73
2021/10/18 09:37:42;;;;;;;22.35;9.95;;;;;;;9.44;58.52;99773.77;1668192;86;21175;-78
2021/10/18 09:40:12;;;;;;;24.15;10.48;;;;;;;9.46;58.33;99772.91;1678114;84;21011;-81
2021/10/18 09:42:39;;;;;;;24.55;11.30;;;;;;;9.51;58.42;99776.36;1662714;84;21119;-77
2021/10/18 09:45:26;;;;;;;24.52;11.30;;;;;;;9.54;57.69;99773.02;1651064;84;20978;-78
2021/10/18 10:51:21;;;;;;;23.40;9.53;;;;;;;10.17;55.48;99705.05;1688697;84;20958;-76
2021/10/18 10:53:52;;;;;;;21.30;9.90;;;;;;;10.29;55.42;99704.55;1684157;84;21561;-77
2021/10/18 10:56:23;;;;;;;21.95;10.43;;;;;;;10.36;55.50;99702.74;1688651;83;21055;-76
2021/10/18 10:58:53;;;;;;;24.57;10.40;;;;;;;10.45;54.34;99702.22;1688676;85;21053;-77
2021/10/18 11:01:44;;;;;;;19.10;9.35;;;;;;;10.49;54.17;99698.55;1688197;85;21099;-78
2021/10/18 11:04:33;;;;;;;30.92;13.13;;;;;;;10.55;54.51;99701.42;1656881;85;20994;-77
2021/10/18 11:07:18;;;;;;;25.25;11.35;;;;;;;10.65;54.37;99700.36;1689929;83;21021;-78
2021/10/18 11:09:58;;;;;;;23.95;10.08;;;;;;;10.71;53.23;99694.99;1689496;85;21021;-76
2021/10/18 11:12:36;;;;;;;21.15;9.68;;;;;;;10.74;53.36;99699.05;1690015;83;21501;-77
2021/10/18 11:15:10;;;;;;;16.95;8.73;;;;;;;10.75;53.09;99695.17;1690094;85;21567;-77
2021/10/18 11:17:50;;;;;;;18.90;10.20;;;;;;;10.78;53.27;99697.30;1689931;85;20981;-78
2021/10/18 11:20:20;;;;;;;18.23;9.33;;;;;;;10.82;53.32;99693.61;1688784;85;21029;-76
2021/10/18 11:22:51;;;;;;;25.60;11.63;;;;;;;10.85;53.22;99690.80;1690281;85;21053;-77
2021/10/18 11:25:21;;;;;;;18.40;9.30;;;;;;;10.86;53.53;99693.23;1690134;85;21017;-77
2021/10/18 11:27:55;;;;;;;22.15;10.00;;;;;;;10.86;53.06;99691.05;1690222;85;21141;-78
2021/10/18 11:30:27;;;;;;;16.82;10.15;;;;;;;10.83;52.69;99686.19;1689971;84;20994;-77
2021/10/18 11:33:10;;;;;;;19.73;10.25;;;;;;;10.77;53.11;99683.32;1690057;83;21017;-78
2021/10/18 11:35:37;;;;;;;20.70;9.18;;;;;;;10.73;53.34;99683.70;1689257;84;21073;-79
2021/10/18 11:38:09;;;;;;;19.30;8.68;;;;;;;10.70;53.08;99687.06;1690119;85;21017;-78
2021/10/18 11:40:43;;;;;;;20.85;10.38;;;;;;;10.65;53.16;99685.26;1690566;85;21120;-78
2021/10/18 11:43:12;;;;;;;20.85;8.80;;;;;;;10.59;53.68;99685.13;1685990;84;20919;-78
2021/10/18 11:45:42;;;;;;;20.88;9.33;;;;;;;10.55;53.64;99686.32;1675158;84;21074;-79
2021/10/18 11:48:19;;;;;;;19.90;11.05;;;;;;;10.55;54.03;99684.14;1674881;84;21585;-78
2021/10/18 11:50:47;;;;;;;24.57;10.15;;;;;;;10.52;53.56;99688.87;1675377;85;21045;-80
2021/10/18 11:53:22;;;;;;;19.65;10.08;;;;;;;10.46;53.81;99681.33;1675135;84;21144;-83
2021/10/18 11:55:52;;;;;;;27.07;9.78;;;;;;;10.43;54.34;99680.58;1675069;85;21517;-81
2021/10/18 11:58:25;;;;;;;22.90;10.88;;;;;;;10.41;53.41;99691.05;1675131;85;21070;-80
2021/10/18 12:01:04;;;;;;;24.50;10.82;;;;;;;10.35;53.93;99692.33;1675117;85;21089;-79
2021/10/18 12:03:32;;;;;;;25.57;11.48;;;;;;;10.31;53.93;99692.70;1674432;85;20935;-84
2021/10/18 12:06:02;;;;;;;22.32;11.22;;;;;;;10.31;54.45;99685.84;1675676;85;21829;-81
2021/10/18 12:08:31;;;;;;;21.62;10.70;;;;;;;10.32;54.29;99686.64;1675666;84;20898;-81
2021/10/18 12:10:58;;;;;;;24.92;12.60;;;;;;;10.35;54.55;99681.34;1675952;84;21464;-79
2021/10/18 12:13:40;;;;;;;20.12;9.20;;;;;;;10.40;54.68;99693.55;1675639;85;21457;-77
2021/10/18 12:16:11;;;;;;;19.27;10.60;;;;;;;10.45;54.53;99691.24;1676229;85;20902;-84
2021/10/18 12:18:46;;;;;;;21.68;10.95;;;;;;;10.47;54.72;99693.92;1676074;85;21152;-79
2021/10/18 12:21:23;;;;;;;23.77;11.78;;;;;;;10.46;54.15;99686.00;1679619;85;21662;-76
2021/10/18 12:23:59;;;;;;;19.57;10.00;;;;;;;10.45;54.51;99696.17;1676124;85;20975;-77
2021/10/18 12:26:42;;;;;;;22.17;9.50;;;;;;;10.44;54.42;99686.88;1671573;84;21008;-78
2021/10/18 12:29:15;;;;;;;18.55;9.88;;;;;;;10.43;54.68;99683.32;1653735;85;20953;-76
2021/10/18 12:31:46;;;;;;;24.40;9.95;;;;;;;10.41;54.23;99686.94;1662867;86;21374;-78
2021/10/18 12:34:17;;;;;;;27.02;10.98;;;;;;;10.36;54.40;99687.09;1654575;86;20960;-80
2021/10/18 12:37:07;;;;;;;30.50;12.00;;;;;;;10.32;55.40;99697.63;1663261;85;20921;-75
2021/10/18 12:39:47;;;;;;;21.73;10.20;;;;;;;10.31;55.33;99689.14;1674262;84;20955;-78
2021/10/18 12:42:27;;;;;;;23.25;10.43;;;;;;;10.32;55.71;99691.58;1677475;85;20902;-76
2021/10/18 12:45:16;;;;;;;23.38;11.05;;;;;;;10.33;56.40;99691.02;1675275;84;21060;-75
2021/10/18 12:47:56;;;;;;;33.15;11.28;;;;;;;10.34;56.55;99692.64;1719063;83;21013;-75
2021/10/18 12:50:24;;;;;;;20.77;11.12;;;;;;;10.34;55.94;99694.81;1702504;84;20994;-74
2021/10/18 12:52:57;;;;;;;22.25;9.75;;;;;;;10.29;55.64;99692.20;1702723;84;20954;-75
2021/10/18 12:55:34;;;;;;;27.95;11.83;;;;;;;10.20;55.75;99690.75;1701622;84;20985;-75
2021/10/18 12:58:07;;;;;;;21.75;11.88;;;;;;;10.16;56.12;99702.62;1706527;83;21088;-76
2021/10/18 13:00:39;;;;;;;24.15;11.43;;;;;;;10.15;56.56;99696.31;1689696;83;20974;-70